createdAt,value
2018-10-21T00:00:57.773Z,24.00
2018-10-21T00:03:26.339Z,31.10
2018-10-21T00:05:54.684Z,24.10
2018-10-21T00:08:23.790Z,21.97
2018-10-21T00:10:52.158Z,27.00
2018-10-21T00:13:20.534Z,23.40
2018-10-21T00:15:48.979Z,23.90
2018-10-21T00:18:17.327Z,20.83
2018-10-21T00:20:45.741Z,21.07
2018-10-21T00:23:14.216Z,22.63
2018-10-21T00:25:42.587Z,22.87
2018-10-21T00:28:10.979Z,24.33
2018-10-21T00:30:39.457Z,25.60
2018-10-21T00:33:07.939Z,25.23
2018-10-21T00:35:36.271Z,26.23
2018-10-21T00:38:05.417Z,25.67
2018-10-21T00:40:33.871Z,24.07
2018-10-21T00:43:02.206Z,23.97
2018-10-21T00:45:30.683Z,28.97
2018-10-21T00:47:59.040Z,27.50
2018-10-21T00:50:27.392Z,27.53
2018-10-21T00:52:55.738Z,28.73
2018-10-21T00:55:24.127Z,26.87
2018-10-21T00:57:52.492Z,27.90
2018-10-21T01:00:20.890Z,26.60
2018-10-21T01:02:49.998Z,30.20
2018-10-21T01:05:18.348Z,32.13
2018-10-21T01:07:46.748Z,27.43
2018-10-21T01:10:15.050Z,29.07
2018-10-21T01:12:43.424Z,28.00
2018-10-21T01:15:11.827Z,26.33
2018-10-21T01:17:40.150Z,28.30
2018-10-21T01:20:09.296Z,29.40
2018-10-21T01:22:37.640Z,30.70
2018-10-21T01:25:06.061Z,28.17
2018-10-21T01:27:34.448Z,29.70
2018-10-21T01:30:02.803Z,29.83
2018-10-21T01:32:31.136Z,28.80
2018-10-21T01:34:59.522Z,32.17
2018-10-21T01:37:28.760Z,34.43
2018-10-21T01:42:51.935Z,31.87
2018-10-21T01:45:20.309Z,35.33
2018-10-21T01:47:48.688Z,30.23
2018-10-21T01:50:17.069Z,30.97
2018-10-21T01:52:45.450Z,30.00
2018-10-21T01:55:13.855Z,26.97
2018-10-21T01:57:42.235Z,34.57
2018-10-21T02:00:10.587Z,32.83
2018-10-21T02:02:38.995Z,29.23
2018-10-21T02:05:07.337Z,28.60
2018-10-21T02:07:36.479Z,27.07
2018-10-21T02:10:04.959Z,35.83
2018-10-21T02:12:33.330Z,30.27
2018-10-21T02:15:01.846Z,30.67
2018-10-21T02:17:30.141Z,32.53
2018-10-21T02:19:59.283Z,26.70
2018-10-21T02:22:27.740Z,28.33
2018-10-21T02:24:56.164Z,35.07
2018-10-21T02:27:24.601Z,32.77
2018-10-21T02:29:52.975Z,37.50
2018-10-21T02:32:21.464Z,35.97
2018-10-21T02:34:49.808Z,34.87
2018-10-21T02:37:18.159Z,40.07
2018-10-21T02:39:46.509Z,37.10
2018-10-21T02:42:14.978Z,37.27
2018-10-21T02:44:44.103Z,39.87
2018-10-21T02:47:12.456Z,34.53
2018-10-21T02:49:40.942Z,34.87
2018-10-21T02:52:09.282Z,35.03
2018-10-21T02:54:37.623Z,38.60
2018-10-21T02:57:06.061Z,40.07
2018-10-21T02:59:34.459Z,42.83
2018-10-21T03:02:02.819Z,42.20
2018-10-21T03:04:31.210Z,42.77
2018-10-21T03:06:59.611Z,45.57
2018-10-21T03:09:27.999Z,36.43
2018-10-21T03:11:56.341Z,41.87
2018-10-21T03:14:25.446Z,42.43
2018-10-21T03:16:53.845Z,39.50
2018-10-21T03:19:22.183Z,40.03
2018-10-21T03:21:51.307Z,41.63
2018-10-21T03:24:19.701Z,41.03
2018-10-21T03:26:48.031Z,44.23
2018-10-21T03:29:16.407Z,41.80
2018-10-21T03:31:44.747Z,39.93
2018-10-21T03:34:13.133Z,40.60
2018-10-21T03:36:41.527Z,37.03
2018-10-21T03:39:09.936Z,38.47
2018-10-21T03:41:39.173Z,41.00
2018-10-21T03:44:07.571Z,44.67
2018-10-21T03:46:35.925Z,41.47
2018-10-21T03:49:04.307Z,40.80
2018-10-21T03:51:32.745Z,41.77
2018-10-21T03:54:01.087Z,38.17
2018-10-21T03:56:29.557Z,36.13
2018-10-21T03:58:57.947Z,36.23
2018-10-21T04:01:26.282Z,38.90
2018-10-21T04:03:54.702Z,35.83
2018-10-21T04:06:23.071Z,36.23
2018-10-21T04:08:51.416Z,34.67
2018-10-21T04:11:20.603Z,39.67
2018-10-21T04:13:49.727Z,38.60
2018-10-21T04:16:18.179Z,37.30
2018-10-21T04:18:46.486Z,39.37
2018-10-21T04:21:14.833Z,40.80
2018-10-21T04:23:43.197Z,44.50
2018-10-21T04:26:11.637Z,43.33
2018-10-21T04:28:40.019Z,40.87
2018-10-21T04:31:08.387Z,44.07
2018-10-21T04:33:36.779Z,39.90
2018-10-21T04:36:05.163Z,41.97
2018-10-21T04:38:41.487Z,44.00
2018-10-21T04:41:10.616Z,44.10
2018-10-21T04:43:38.997Z,39.27
2018-10-21T04:46:07.446Z,40.73
2018-10-21T04:48:35.711Z,42.87
2018-10-21T04:51:04.119Z,39.37
2018-10-21T04:53:32.515Z,37.87
2018-10-21T04:56:00.881Z,39.07
2018-10-21T04:58:30.191Z,45.60
2018-10-21T05:00:58.577Z,46.30
2018-10-21T05:03:26.953Z,37.33
2018-10-21T05:05:55.436Z,41.83
2018-10-21T05:08:23.780Z,35.80
2018-10-21T05:10:52.917Z,37.83
2018-10-21T05:13:21.298Z,38.40
2018-10-21T05:15:49.695Z,40.07
2018-10-21T05:18:18.052Z,38.30
2018-10-21T05:20:46.495Z,40.57
2018-10-21T05:23:15.619Z,40.23
2018-10-21T05:25:44.013Z,38.47
2018-10-21T05:28:12.395Z,40.63
2018-10-21T05:30:40.861Z,43.13
2018-10-21T05:33:09.205Z,39.27
2018-10-21T05:35:37.638Z,38.67
2018-10-21T05:38:06.042Z,43.27
2018-10-21T05:40:34.372Z,43.77
2018-10-21T05:43:03.581Z,43.93
2018-10-21T05:45:31.927Z,38.13
2018-10-21T05:48:00.299Z,41.50
2018-10-21T05:50:28.648Z,47.03
2018-10-21T05:52:57.023Z,41.03
2018-10-21T05:55:25.376Z,44.43
2018-10-21T05:57:53.805Z,43.97
2018-10-21T06:00:22.163Z,41.47
2018-10-21T06:02:50.575Z,40.50
2018-10-21T06:05:18.909Z,44.77
2018-10-21T06:07:47.302Z,39.00
2018-10-21T06:10:15.774Z,39.80
2018-10-21T06:12:44.061Z,38.43
2018-10-21T06:15:12.410Z,37.63
2018-10-21T06:17:40.793Z,39.63
2018-10-21T06:20:09.132Z,41.80
2018-10-21T06:22:37.557Z,42.40
2018-10-21T06:25:05.928Z,41.67
2018-10-21T06:27:34.354Z,37.87
2018-10-21T06:30:02.697Z,41.87
2018-10-21T06:32:31.066Z,39.63
2018-10-21T06:34:59.451Z,36.03
2018-10-21T06:37:27.829Z,35.40
2018-10-21T06:39:56.258Z,38.33
2018-10-21T06:42:24.593Z,42.90
2018-10-21T06:44:53.013Z,37.07
2018-10-21T06:47:21.372Z,41.53
2018-10-21T06:49:49.711Z,41.17
2018-10-21T06:52:18.112Z,35.10
2018-10-21T06:54:46.457Z,40.77
2018-10-21T06:57:15.704Z,41.20
2018-10-21T06:59:43.986Z,37.43
2018-10-21T07:02:12.447Z,36.83
2018-10-21T07:04:40.908Z,35.00
2018-10-21T07:07:09.176Z,39.90
2018-10-21T07:09:37.605Z,42.13
2018-10-21T07:12:05.984Z,38.60
2018-10-21T07:14:34.342Z,40.90
2018-10-21T07:17:02.702Z,39.20
2018-10-21T07:19:31.104Z,39.93
2018-10-21T07:21:59.537Z,36.00
2018-10-21T07:24:27.862Z,35.33
2018-10-21T07:26:56.248Z,38.27
2018-10-21T07:29:24.702Z,37.33
2018-10-21T07:31:53.122Z,35.63
2018-10-21T07:34:21.464Z,40.60
2018-10-21T07:36:49.810Z,37.40
2018-10-21T07:39:18.399Z,35.63
2018-10-21T07:41:46.734Z,40.27
2018-10-21T07:44:15.189Z,38.47
2018-10-21T07:46:43.560Z,37.07
2018-10-21T07:49:12.778Z,39.60
2018-10-21T07:51:41.087Z,38.67
2018-10-21T07:54:09.434Z,34.83
2018-10-21T07:56:37.896Z,38.37
2018-10-21T07:59:07.019Z,38.77
2018-10-21T08:01:35.386Z,35.07
2018-10-21T08:04:03.814Z,33.57
2018-10-21T08:06:44.153Z,36.33
2018-10-21T08:09:12.553Z,38.43
2018-10-21T08:11:40.936Z,34.20
2018-10-21T08:14:09.289Z,34.87
2018-10-21T08:16:37.644Z,36.90
2018-10-21T08:19:06.010Z,39.93
2018-10-21T08:21:34.392Z,36.20
2018-10-21T08:24:02.741Z,31.50
2018-10-21T08:26:31.106Z,41.17
2018-10-21T08:28:59.557Z,37.37
2018-10-21T08:31:27.930Z,38.10
2018-10-21T08:33:56.297Z,38.70
2018-10-21T08:36:24.720Z,41.53
2018-10-21T08:38:53.099Z,36.40
2018-10-21T08:41:21.436Z,37.53
2018-10-21T08:43:49.853Z,37.80
2018-10-21T08:46:18.248Z,38.33
2018-10-21T08:48:46.602Z,33.57
2018-10-21T08:51:14.932Z,35.07
2018-10-21T08:53:44.038Z,39.13
2018-10-21T08:56:12.428Z,37.30
2018-10-21T08:58:40.793Z,38.90
2018-10-21T09:01:09.182Z,35.87
2018-10-21T09:03:37.511Z,41.07
2018-10-21T09:06:05.895Z,34.43
2018-10-21T09:08:34.235Z,37.80
2018-10-21T09:11:02.710Z,39.73
2018-10-21T09:13:30.991Z,41.60
2018-10-21T09:15:59.436Z,39.40
2018-10-21T09:18:27.744Z,36.87
2018-10-21T09:20:56.210Z,43.07
2018-10-21T09:23:24.993Z,36.73
2018-10-21T09:25:53.431Z,40.60
2018-10-21T09:28:21.896Z,38.80
2018-10-21T09:30:50.294Z,35.67
2018-10-21T09:33:18.680Z,39.57
2018-10-21T09:35:46.982Z,40.40
2018-10-21T09:38:15.416Z,38.03
2018-10-21T09:40:43.889Z,43.70
2018-10-21T09:43:12.379Z,40.03
2018-10-21T09:45:40.648Z,36.33
2018-10-21T09:48:09.036Z,43.73
2018-10-21T09:50:37.538Z,37.63
2018-10-21T09:53:05.937Z,36.33
2018-10-21T09:55:34.382Z,37.10
2018-10-21T09:58:02.799Z,37.00
2018-10-21T10:00:31.162Z,36.23
2018-10-21T10:02:59.516Z,39.00
2018-10-21T10:05:28.099Z,39.13
2018-10-21T10:07:56.470Z,35.73
2018-10-21T10:10:24.872Z,32.30
2018-10-21T10:12:53.227Z,35.07
2018-10-21T10:15:21.555Z,37.83
2018-10-21T10:17:50.073Z,34.27
2018-10-21T10:20:18.331Z,37.00
2018-10-21T10:22:47.562Z,36.20
2018-10-21T10:25:16.036Z,30.60
2018-10-21T10:27:44.383Z,31.73
2018-10-21T10:30:12.759Z,33.67
2018-10-21T10:32:41.219Z,31.43
2018-10-21T10:35:09.567Z,29.37
2018-10-21T10:37:38.056Z,30.57
2018-10-21T10:40:06.465Z,30.97
2018-10-21T10:42:34.804Z,31.37
2018-10-21T10:45:03.171Z,29.80
2018-10-21T10:47:31.569Z,29.70
2018-10-21T10:49:59.948Z,30.57
2018-10-21T10:52:28.333Z,29.80
2018-10-21T10:54:56.746Z,29.50
2018-10-21T10:57:25.059Z,26.90
2018-10-21T10:59:53.484Z,25.57
2018-10-21T11:02:21.787Z,23.77
2018-10-21T11:04:50.133Z,26.83
2018-10-21T11:07:18.526Z,21.37
2018-10-21T11:09:46.883Z,20.25
2018-10-21T11:12:15.294Z,10.40
2018-10-21T11:14:43.843Z,12.45
2018-10-21T11:17:12.223Z,12.00
2018-10-21T11:19:40.563Z,14.15
2018-10-21T11:22:09.827Z,13.95
2018-10-21T11:24:38.141Z,13.93
2018-10-21T11:27:06.497Z,14.82
2018-10-21T11:29:34.874Z,17.15
2018-10-21T11:32:03.297Z,13.52
2018-10-21T11:34:31.698Z,20.02
2018-10-21T11:37:00.217Z,15.68
2018-10-21T11:39:28.560Z,14.45
2018-10-21T11:41:56.924Z,16.20
2018-10-21T11:44:25.305Z,14.63
2018-10-21T11:46:53.668Z,12.03
2018-10-21T11:49:22.082Z,14.03
2018-10-21T11:51:50.481Z,16.63
2018-10-21T11:54:18.901Z,17.80
2018-10-21T11:56:48.045Z,19.53
2018-10-21T11:59:16.409Z,18.13
2018-10-21T12:01:44.799Z,18.27
2018-10-21T12:04:13.205Z,16.20
2018-10-21T12:06:41.631Z,14.63
2018-10-21T12:09:09.985Z,19.03
2018-10-21T12:11:39.115Z,17.43
2018-10-21T12:14:07.494Z,16.47
2018-10-21T12:16:35.897Z,15.73
2018-10-21T12:19:04.285Z,15.80
2018-10-21T12:21:32.605Z,16.00
2018-10-21T12:24:01.738Z,15.93
2018-10-21T12:26:30.317Z,15.13
2018-10-21T12:28:58.712Z,15.40
2018-10-21T12:31:27.049Z,16.60
2018-10-21T12:33:56.175Z,13.43
2018-10-21T12:36:24.548Z,11.12
2018-10-21T12:38:52.927Z,11.48
2018-10-21T12:41:21.310Z,13.43
2018-10-21T12:43:49.655Z,12.40
2018-10-21T12:46:18.779Z,12.20
2018-10-21T12:48:47.132Z,11.50
2018-10-21T12:51:16.264Z,14.93
2018-10-21T12:53:44.643Z,12.60
2018-10-21T12:56:13.029Z,10.38
2018-10-21T12:58:41.367Z,12.40
2018-10-21T13:01:10.514Z,12.23
2018-10-21T13:03:39.593Z,9.52
2018-10-21T13:06:07.936Z,9.30
2018-10-21T13:08:36.331Z,8.50
2018-10-21T13:11:04.725Z,12.77
2018-10-21T13:13:33.118Z,9.70
2018-10-21T13:16:01.496Z,7.95
2018-10-21T13:18:29.881Z,8.52
2018-10-21T13:20:58.295Z,9.88
2018-10-21T13:23:26.641Z,11.63
2018-10-21T13:25:55.000Z,10.73
2018-10-21T13:28:23.515Z,10.15
2018-10-21T13:30:51.752Z,8.45
2018-10-21T13:33:20.097Z,8.55
2018-10-21T13:35:48.528Z,9.65
2018-10-21T13:38:16.876Z,9.85
2018-10-21T13:40:46.107Z,9.38
2018-10-21T13:43:14.619Z,8.80
2018-10-21T13:45:43.041Z,9.00
2018-10-21T13:48:11.321Z,9.10
2018-10-21T13:50:39.721Z,10.18
2018-10-21T13:53:08.193Z,7.65
2018-10-21T13:55:37.495Z,10.13
2018-10-21T13:58:05.905Z,7.18
2018-10-21T14:00:35.089Z,10.63
2018-10-21T14:03:03.310Z,8.57
2018-10-21T14:05:31.725Z,10.60
2018-10-21T14:08:00.087Z,8.32
2018-10-21T14:10:29.208Z,9.43
2018-10-21T14:12:57.634Z,12.27
2018-10-21T14:15:26.031Z,9.10
2018-10-21T14:17:54.367Z,10.00
2018-10-21T14:20:22.725Z,8.27
2018-10-21T14:22:52.637Z,9.37
2018-10-21T14:25:20.987Z,9.67
2018-10-21T14:27:49.413Z,11.90
2018-10-21T14:30:17.823Z,11.20
2018-10-21T14:32:46.121Z,13.83
2018-10-21T14:35:15.277Z,8.73
2018-10-21T14:37:43.673Z,10.77
2018-10-21T14:40:12.011Z,12.07
2018-10-21T14:42:40.506Z,9.33
2018-10-21T14:45:08.873Z,9.27
2018-10-21T14:47:37.218Z,10.10
2018-10-21T14:50:06.088Z,13.03
2018-10-21T14:52:34.456Z,12.07
2018-10-21T14:55:02.866Z,10.03
2018-10-21T14:57:31.293Z,12.40
2018-10-21T14:59:59.771Z,12.43
2018-10-21T15:02:28.104Z,12.20
2018-10-21T15:04:56.525Z,12.60
2018-10-21T15:07:25.082Z,12.33
2018-10-21T15:09:54.265Z,10.47
2018-10-21T15:12:22.635Z,10.73
2018-10-21T15:14:50.965Z,12.73
2018-10-21T15:17:19.391Z,11.30
2018-10-21T15:19:47.785Z,12.50
2018-10-21T15:22:16.265Z,11.90
2018-10-21T15:24:44.599Z,12.10
2018-10-21T15:27:12.945Z,11.17
2018-10-21T15:29:42.191Z,9.30
2018-10-21T15:32:10.534Z,10.70
2018-10-21T15:34:39.739Z,10.43
2018-10-21T15:37:08.155Z,11.93
2018-10-21T15:39:36.535Z,17.00
2018-10-21T15:42:04.978Z,11.40
2018-10-21T15:44:34.107Z,15.37
2018-10-21T15:47:02.509Z,10.97
2018-10-21T15:49:30.880Z,11.30
2018-10-21T15:51:59.401Z,11.77
2018-10-21T15:54:27.715Z,12.43
2018-10-21T15:56:56.129Z,12.83
2018-10-21T15:59:24.509Z,12.20
2018-10-21T16:01:52.946Z,10.23
2018-10-21T16:04:21.422Z,12.00
2018-10-21T16:06:49.772Z,12.63
2018-10-21T16:09:18.907Z,12.57
2018-10-21T16:11:47.294Z,9.37
2018-10-21T16:14:15.655Z,11.70
2018-10-21T16:16:44.064Z,10.53
2018-10-21T16:19:12.448Z,12.73
2018-10-21T16:21:40.917Z,7.23
2018-10-21T16:24:09.254Z,9.13
2018-10-21T16:26:38.404Z,18.33
2018-10-21T16:29:06.822Z,16.33
2018-10-21T16:31:36.067Z,14.13
2018-10-21T16:34:05.206Z,10.50
2018-10-21T16:36:33.546Z,11.83
2018-10-21T16:39:01.894Z,9.77
2018-10-21T16:41:30.253Z,10.77
2018-10-21T16:43:59.415Z,10.77
2018-10-21T16:46:27.760Z,8.33
2018-10-21T16:48:56.082Z,10.90
2018-10-21T16:51:24.616Z,11.33
2018-10-21T16:53:52.933Z,9.23
2018-10-21T16:56:21.371Z,10.33
2018-10-21T16:58:49.766Z,12.43
2018-10-21T17:01:18.288Z,14.93
2018-10-21T17:03:47.104Z,9.23
2018-10-21T17:06:15.712Z,12.87
2018-10-21T17:08:44.824Z,11.27
2018-10-21T17:11:13.235Z,39.50
2018-10-21T17:13:41.717Z,76.03
2018-10-21T17:16:10.254Z,48.20
2018-10-21T17:18:38.657Z,28.33
2018-10-21T17:21:07.035Z,21.07
2018-10-21T17:23:35.377Z,17.10
2018-10-21T17:26:04.214Z,14.00
2018-10-21T17:28:32.561Z,12.90
2018-10-21T17:31:01.005Z,14.43
2018-10-21T17:33:29.298Z,15.70
2018-10-21T17:35:58.419Z,11.27
2018-10-21T17:38:26.784Z,16.40
2018-10-21T17:40:55.905Z,13.10
2018-10-21T17:43:24.275Z,13.17
2018-10-21T17:45:52.624Z,15.03
2018-10-21T17:48:21.884Z,11.27
2018-10-21T17:50:50.290Z,13.87
2018-10-21T17:53:19.525Z,13.50
2018-10-21T17:55:47.922Z,16.53
2018-10-21T17:58:16.391Z,11.33
2018-10-21T18:00:44.670Z,14.23
2018-10-21T18:03:13.038Z,20.17
2018-10-21T18:05:41.389Z,15.20
2018-10-21T18:08:09.779Z,26.80
2018-10-21T18:10:38.209Z,44.07
2018-10-21T18:13:06.591Z,26.73
2018-10-21T18:15:34.935Z,24.23
2018-10-21T18:18:03.349Z,21.07
2018-10-21T18:20:31.781Z,14.87
2018-10-21T18:23:00.112Z,14.83
2018-10-21T18:25:28.651Z,15.53
2018-10-21T18:27:57.857Z,13.80
2018-10-21T18:30:27.325Z,15.83
2018-10-21T18:32:58.396Z,14.90
2018-10-21T18:35:30.533Z,17.17
2018-10-21T18:38:00.107Z,16.13
2018-10-21T18:40:28.631Z,15.80
2018-10-21T18:42:57.071Z,20.73
2018-10-21T18:45:25.472Z,17.87
2018-10-21T18:47:53.873Z,17.20
2018-10-21T18:50:22.275Z,22.50
2018-10-21T18:52:51.423Z,25.07
2018-10-21T18:55:19.875Z,19.40
2018-10-21T18:57:48.222Z,19.17
2018-10-21T19:00:16.649Z,26.80
2018-10-21T19:02:45.002Z,17.80
2018-10-21T19:05:13.400Z,20.73
2018-10-21T19:07:41.804Z,20.93
2018-10-21T19:10:10.201Z,17.47
2018-10-21T19:12:39.370Z,19.40
2018-10-21T19:15:07.715Z,20.77
2018-10-21T19:17:36.096Z,17.87
2018-10-21T19:20:04.458Z,23.40
2018-10-21T19:22:32.957Z,20.37
2018-10-21T19:25:01.303Z,21.27
2018-10-21T19:27:29.754Z,20.33
2018-10-21T19:29:58.134Z,25.03
2018-10-21T19:32:26.517Z,20.57
2018-10-21T19:34:54.892Z,19.13
2018-10-21T19:37:23.295Z,20.77
2018-10-21T19:39:52.016Z,17.40
2018-10-21T19:42:20.428Z,19.20
2018-10-21T19:44:48.783Z,18.67
2018-10-21T19:47:17.205Z,20.50
2018-10-21T19:49:45.593Z,19.00
2018-10-21T19:52:14.903Z,16.90
2018-10-21T19:54:43.243Z,19.93
2018-10-21T19:57:12.336Z,18.10
2018-10-21T19:59:40.700Z,15.50
2018-10-21T20:02:09.851Z,19.80
2018-10-21T20:04:38.417Z,21.13
2018-10-21T20:07:06.903Z,16.37
2018-10-21T20:09:38.057Z,16.57
2018-10-21T20:12:16.235Z,14.00
2018-10-21T20:14:47.515Z,16.93
2018-10-21T20:17:16.864Z,16.50
2018-10-21T20:19:46.101Z,16.57
2018-10-21T20:22:15.967Z,16.57
2018-10-21T20:24:46.502Z,18.77
2018-10-21T20:27:15.439Z,18.57
2018-10-21T20:29:44.018Z,18.23
2018-10-21T20:32:12.426Z,15.57
2018-10-21T20:34:40.878Z,17.90
2018-10-21T20:37:09.444Z,14.50
2018-10-21T20:39:37.777Z,16.03
2018-10-21T20:42:06.467Z,19.93
2018-10-21T20:44:35.498Z,14.43
2018-10-21T20:47:04.590Z,16.20
2018-10-21T20:49:32.970Z,13.40
2018-10-21T20:52:01.348Z,14.77
2018-10-21T20:54:29.829Z,15.47
2018-10-21T20:56:58.300Z,13.80
2018-10-21T20:59:26.922Z,14.70
2018-10-21T21:01:56.931Z,13.80
2018-10-21T21:04:26.046Z,15.93
2018-10-21T21:06:54.629Z,16.07
2018-10-21T21:09:23.512Z,15.27
2018-10-21T21:11:51.885Z,18.10
2018-10-21T21:14:20.269Z,14.37
2018-10-21T21:16:48.646Z,14.40
2018-10-21T21:19:16.997Z,13.73
2018-10-21T21:21:45.367Z,19.00
2018-10-21T21:24:14.515Z,17.70
2018-10-21T21:26:42.866Z,13.93
2018-10-21T21:29:11.259Z,22.60
2018-10-21T21:31:39.654Z,14.80
2018-10-21T21:34:08.096Z,16.10
2018-10-21T21:36:36.430Z,16.17
2018-10-21T21:39:04.808Z,15.67
2018-10-21T21:41:33.148Z,18.33
2018-10-21T21:44:01.642Z,14.00
2018-10-21T21:46:29.968Z,13.37
2018-10-21T21:48:58.422Z,13.07
2018-10-21T21:51:26.760Z,15.83
2018-10-21T21:53:55.128Z,15.37
2018-10-21T21:56:23.456Z,13.87
2018-10-21T21:58:51.818Z,17.37
2018-10-21T22:01:20.154Z,14.40
2018-10-21T22:03:49.259Z,14.47
2018-10-21T22:06:17.712Z,17.43
2018-10-21T22:08:46.096Z,15.50
2018-10-21T22:11:15.203Z,15.87
2018-10-21T22:13:44.442Z,16.37
2018-10-21T22:16:12.891Z,13.00
2018-10-21T22:18:41.284Z,13.03
2018-10-21T22:21:09.716Z,14.57
2018-10-21T22:23:38.030Z,13.40
2018-10-21T22:26:07.163Z,17.77
2018-10-21T22:28:35.525Z,16.07
2018-10-21T22:31:03.868Z,12.17
2018-10-21T22:33:32.361Z,15.63
2018-10-21T22:36:00.848Z,13.33
2018-10-21T22:38:29.288Z,15.60
2018-10-21T22:40:57.703Z,18.63
2018-10-21T22:43:26.077Z,12.97
2018-10-21T22:45:54.516Z,15.30
2018-10-21T22:48:22.869Z,13.63
2018-10-21T22:50:51.321Z,14.63
2018-10-21T22:53:19.694Z,13.23
2018-10-21T22:55:48.025Z,16.60
2018-10-21T22:58:16.602Z,17.53
2018-10-21T23:00:44.910Z,16.67
2018-10-21T23:03:13.448Z,17.00
2018-10-21T23:05:42.580Z,19.53
2018-10-21T23:08:10.941Z,19.33
2018-10-21T23:10:39.275Z,17.80
2018-10-21T23:13:07.645Z,14.97
2018-10-21T23:15:35.976Z,17.00
2018-10-21T23:18:04.363Z,17.03
2018-10-21T23:20:32.731Z,15.83
2018-10-21T23:23:01.087Z,17.97
2018-10-21T23:25:30.190Z,13.83
2018-10-21T23:27:58.564Z,15.90
2018-10-21T23:30:26.882Z,16.53
2018-10-21T23:32:55.285Z,14.53
2018-10-21T23:35:23.725Z,14.33
2018-10-21T23:37:52.100Z,16.40
2018-10-21T23:40:20.528Z,16.43
2018-10-21T23:42:48.864Z,12.77
2018-10-21T23:45:17.217Z,15.70
2018-10-21T23:47:46.311Z,14.87
2018-10-21T23:50:15.419Z,15.93
2018-10-21T23:52:43.822Z,16.20
2018-10-21T23:55:12.171Z,15.27
2018-10-21T23:57:41.262Z,17.33
